createdAt,value
2023-05-11T16:13:20.867Z,93539.13
2023-05-11T16:15:52.480Z,93539.13
2023-05-11T16:18:20.253Z,93545.00
2023-05-11T16:23:43.221Z,93536.63
2023-05-11T16:26:11.040Z,93536.63
2023-05-11T16:28:38.452Z,93538.91
2023-05-11T16:31:05.865Z,93541.16
2023-05-11T16:33:33.596Z,93543.44
2023-05-11T16:36:01.274Z,93553.44
2023-05-11T16:38:28.674Z,93552.87
2023-05-11T16:40:56.602Z,93556.62
2023-05-11T16:43:24.048Z,93553.56
2023-05-11T16:45:51.909Z,93549.91
2023-05-11T16:48:19.987Z,93559.13
2023-05-11T16:50:47.711Z,93556.50
2023-05-11T16:53:15.336Z,93550.94
2023-05-11T16:55:44.261Z,93549.69
2023-05-11T16:58:11.770Z,93553.66
2023-05-11T17:00:39.213Z,93556.72
2023-05-11T17:03:07.160Z,93557.66
2023-05-11T17:05:34.693Z,93561.41
2023-05-11T17:08:02.067Z,93559.47
2023-05-11T17:10:29.864Z,93560.94
2023-05-11T17:12:57.898Z,93555.06
2023-05-11T17:15:25.204Z,93555.16
2023-05-11T17:17:53.437Z,93554.94
2023-05-11T17:20:21.419Z,93555.81
2023-05-11T17:22:49.437Z,93552.44
2023-05-11T17:25:17.355Z,93546.50
2023-05-11T17:27:44.693Z,93546.97
2023-05-11T17:30:12.734Z,93548.66
2023-05-11T17:32:40.896Z,93547.06
2023-05-11T17:35:09.418Z,93546.06
2023-05-11T17:37:38.066Z,93544.22
2023-05-11T17:40:06.571Z,93543.22
2023-05-11T17:42:35.054Z,93542.75
2023-05-11T17:45:04.002Z,93543.09
2023-05-11T17:47:31.863Z,93537.53
2023-05-11T17:50:00.441Z,93544.81
2023-05-11T17:52:30.572Z,93536.06
2023-05-11T17:54:58.324Z,93538.78
2023-05-11T17:57:26.672Z,93546.63
2023-05-11T17:59:54.194Z,93541.84
2023-05-11T18:02:21.962Z,93547.06
2023-05-11T18:04:49.656Z,93551.72
2023-05-11T18:07:17.254Z,93549.69
2023-05-11T18:09:44.772Z,93547.06
2023-05-11T18:12:12.831Z,93552.66
2023-05-11T18:14:40.275Z,93551.19
2023-05-11T18:17:08.119Z,93549.78
2023-05-11T18:19:35.873Z,93550.12
2023-05-11T18:22:04.552Z,93555.25
2023-05-11T18:24:31.932Z,93563.47
2023-05-11T18:27:00.448Z,93553.66
2023-05-11T18:29:27.858Z,93559.81
2023-05-11T18:31:55.342Z,93565.84
2023-05-11T18:34:23.326Z,93565.84
2023-05-11T18:36:50.968Z,93562.31
2023-05-11T18:39:19.539Z,93569.34
2023-05-11T18:41:47.392Z,93566.44
2023-05-11T18:44:15.334Z,93570.94
2023-05-11T18:46:42.881Z,93575.03
2023-05-11T18:49:10.863Z,93569.94
2023-05-11T18:51:38.287Z,93570.03
2023-05-11T18:54:06.503Z,93573.59
2023-05-11T18:56:34.372Z,93577.19
2023-05-11T18:59:01.811Z,93578.91
2023-05-11T19:01:46.136Z,93576.06
2023-05-11T19:04:17.917Z,93571.88
2023-05-11T19:06:45.359Z,93567.53
2023-05-11T19:09:12.745Z,93586.97
2023-05-11T19:11:40.472Z,93584.59
2023-05-11T19:14:07.947Z,93591.19
2023-05-11T19:16:36.038Z,93584.81
2023-05-11T19:19:04.119Z,93584.25
2023-05-11T19:21:31.822Z,93579.69
2023-05-11T19:23:59.261Z,93586.41
2023-05-11T19:26:27.100Z,93583.78
2023-05-11T19:28:54.590Z,93587.66
2023-05-11T19:31:22.952Z,93591.53
2023-05-11T19:33:51.133Z,93593.31
2023-05-11T19:36:18.779Z,93583.41
2023-05-11T19:38:46.408Z,93585.91
2023-05-11T19:41:14.181Z,93585.06
2023-05-11T19:43:41.572Z,93582.56
2023-05-11T19:46:09.704Z,93585.38
2023-05-11T19:48:38.446Z,93586.38
2023-05-11T19:51:06.312Z,93592.25
2023-05-11T19:53:34.042Z,93598.81
2023-05-11T19:56:01.712Z,93602.44
2023-05-11T19:58:29.252Z,93593.91
2023-05-11T20:00:56.724Z,93591.75
2023-05-11T20:03:25.764Z,93598.25
2023-05-11T20:05:55.643Z,93601.06
2023-05-11T20:08:22.901Z,93594.03
2023-05-11T20:10:50.894Z,93600.13
2023-05-11T20:13:18.376Z,93601.81
2023-05-11T20:15:45.899Z,93602.97
2023-05-11T20:18:13.645Z,93606.09
2023-05-11T20:20:41.301Z,93608.13
2023-05-11T20:23:09.869Z,93603.94
2023-05-11T20:25:43.882Z,93604.72
2023-05-11T20:28:12.211Z,93607.06
2023-05-11T20:30:39.932Z,93608.06
2023-05-11T20:35:37.899Z,93621.25
2023-05-11T20:38:06.171Z,93627.22
2023-05-11T20:40:33.586Z,93624.00
2023-05-11T20:43:00.980Z,93609.31
2023-05-11T20:45:28.766Z,93620.69
2023-05-11T20:47:57.425Z,93623.38
2023-05-11T20:50:24.929Z,93617.97
2023-05-11T20:52:52.953Z,93620.00
2023-05-11T20:55:20.607Z,93622.00
2023-05-11T20:57:48.327Z,93628.09
2023-05-11T21:00:16.433Z,93622.44
2023-05-11T21:02:44.791Z,93623.69
2023-05-11T21:05:12.129Z,93640.53
2023-05-11T21:07:39.976Z,93640.31
2023-05-11T21:10:07.973Z,93634.84
2023-05-11T21:12:35.275Z,93636.63
2023-05-11T21:15:03.034Z,93639.09
2023-05-11T21:17:30.384Z,93635.19
2023-05-11T21:19:57.724Z,93636.09
2023-05-11T21:22:25.326Z,93641.38
2023-05-11T21:24:52.691Z,93643.84
2023-05-11T21:27:19.925Z,93649.22
2023-05-11T21:29:48.387Z,93645.37
2023-05-11T21:32:15.692Z,93643.00
2023-05-11T21:34:43.978Z,93650.06
2023-05-11T21:37:14.806Z,93650.06
2023-05-11T21:39:42.376Z,93649.47
2023-05-11T21:42:10.049Z,93658.28
2023-05-11T21:44:37.754Z,93658.38
2023-05-11T21:47:05.519Z,93654.00
2023-05-11T21:49:33.465Z,93654.63
2023-05-11T21:52:01.284Z,93654.78
2023-05-11T21:54:28.566Z,93649.63
2023-05-11T21:56:55.924Z,93659.50
2023-05-11T21:59:26.977Z,93650.66
2023-05-11T22:01:56.949Z,93652.31
2023-05-11T22:04:25.480Z,93655.53
2023-05-11T22:06:53.005Z,93652.63
2023-05-11T22:09:20.351Z,93649.09
2023-05-11T22:11:48.060Z,93650.31
2023-05-11T22:14:15.558Z,93648.06
2023-05-11T22:16:43.677Z,93643.34
2023-05-11T22:19:11.345Z,93642.53
2023-05-11T22:21:38.612Z,93639.69
2023-05-11T22:24:06.505Z,93644.19
2023-05-11T22:26:34.358Z,93638.22
2023-05-11T22:29:01.682Z,93640.53
2023-05-11T22:31:29.038Z,93640.81
2023-05-11T22:33:56.973Z,93643.34
2023-05-11T22:36:24.345Z,93646.13
2023-05-11T22:38:51.690Z,93638.59
2023-05-11T22:41:19.411Z,93637.56
2023-05-11T22:43:48.054Z,93640.38
2023-05-11T22:46:15.397Z,93638.03
2023-05-11T22:48:43.281Z,93635.16
2023-05-11T22:51:10.542Z,93637.19
2023-05-11T22:53:37.925Z,93628.56
2023-05-11T22:56:09.409Z,93639.41
2023-05-11T22:58:37.066Z,93628.56
2023-05-11T23:01:04.526Z,93638.03
2023-05-11T23:03:32.346Z,93629.63
2023-05-11T23:05:59.746Z,93621.59
2023-05-11T23:08:27.243Z,93623.97
2023-05-11T23:10:54.895Z,93630.69
2023-05-11T23:13:22.676Z,93636.34
2023-05-11T23:15:50.575Z,93626.94
2023-05-11T23:18:18.329Z,93629.97
2023-05-11T23:20:45.824Z,93626.78
2023-05-11T23:23:13.598Z,93624.00
2023-05-11T23:25:41.422Z,93632.81
2023-05-11T23:28:11.731Z,93626.44
2023-05-11T23:30:39.260Z,93610.84
2023-05-11T23:33:07.211Z,93621.22
2023-05-11T23:35:34.706Z,93624.44
2023-05-11T23:38:02.049Z,93617.19
2023-05-11T23:40:29.972Z,93613.63
2023-05-11T23:42:57.486Z,93615.41
2023-05-11T23:45:26.017Z,93620.59
2023-05-11T23:47:54.139Z,93619.63
2023-05-11T23:50:21.783Z,93615.47
2023-05-11T23:52:49.841Z,93616.25
2023-05-11T23:55:17.512Z,93619.28
2023-05-11T23:57:45.152Z,93618.28
